sensor_id;sensor_type;location;lat;lon;timestamp;P1;durP1;ratioP1;P2;durP2;ratioP2
8532;SDS011;4304;53.876;10.662;2024-02-21T00:01:26;3.97;;;2.95;;
8532;SDS011;4304;53.876;10.662;2024-02-21T00:06:17;5.20;;;2.17;;
8532;SDS011;4304;53.876;10.662;2024-02-21T00:11:07;7.03;;;3.40;;
8532;SDS011;4304;53.876;10.662;2024-02-21T00:13:33;6.67;;;2.73;;
8532;SDS011;4304;53.876;10.662;2024-02-21T00:18:25;4.13;;;2.30;;
8532;SDS011;4304;53.876;10.662;2024-02-21T00:20:50;6.90;;;3.15;;
8532;SDS011;4304;53.876;10.662;2024-02-21T00:25:40;4.00;;;2.83;;
8532;SDS011;4304;53.876;10.662;2024-02-21T00:30:31;4.43;;;1.70;;
8532;SDS011;4304;53.876;10.662;2024-02-21T00:32:57;2.15;;;1.67;;
8532;SDS011;4304;53.876;10.662;2024-02-21T00:35:22;2.70;;;1.73;;
8532;SDS011;4304;53.876;10.662;2024-02-21T00:40:12;9.67;;;3.27;;
8532;SDS011;4304;53.876;10.662;2024-02-21T00:42:41;7.63;;;3.78;;
8532;SDS011;4304;53.876;10.662;2024-02-21T00:47:33;6.32;;;2.15;;
8532;SDS011;4304;53.876;10.662;2024-02-21T00:52:23;4.60;;;2.23;;
8532;SDS011;4304;53.876;10.662;2024-02-21T00:57:14;3.33;;;1.85;;
8532;SDS011;4304;53.876;10.662;2024-02-21T00:59:40;3.58;;;1.83;;
8532;SDS011;4304;53.876;10.662;2024-02-21T01:02:06;6.90;;;2.70;;
8532;SDS011;4304;53.876;10.662;2024-02-21T01:04:32;3.95;;;1.50;;
8532;SDS011;4304;53.876;10.662;2024-02-21T01:09:22;4.60;;;1.90;;
8532;SDS011;4304;53.876;10.662;2024-02-21T01:14:13;5.77;;;3.00;;
8532;SDS011;4304;53.876;10.662;2024-02-21T01:16:38;4.18;;;2.20;;
8532;SDS011;4304;53.876;10.662;2024-02-21T01:19:03;7.00;;;4.17;;
8532;SDS011;4304;53.876;10.662;2024-02-21T01:23:54;8.53;;;2.23;;
8532;SDS011;4304;53.876;10.662;2024-02-21T01:26:19;5.63;;;2.40;;
8532;SDS011;4304;53.876;10.662;2024-02-21T01:28:44;5.87;;;2.80;;
8532;SDS011;4304;53.876;10.662;2024-02-21T01:33:35;4.10;;;3.13;;
8532;SDS011;4304;53.876;10.662;2024-02-21T01:38:28;5.75;;;2.75;;
8532;SDS011;4304;53.876;10.662;2024-02-21T01:43:19;4.33;;;2.50;;
8532;SDS011;4304;53.876;10.662;2024-02-21T01:45:49;5.20;;;1.95;;
8532;SDS011;4304;53.876;10.662;2024-02-21T01:50:44;5.00;;;1.85;;
8532;SDS011;4304;53.876;10.662;2024-02-21T01:53:10;4.60;;;2.45;;
8532;SDS011;4304;53.876;10.662;2024-02-21T01:55:36;4.03;;;2.17;;
8532;SDS011;4304;53.876;10.662;2024-02-21T01:58:01;20.80;;;5.03;;
8532;SDS011;4304;53.876;10.662;2024-02-21T02:02:52;5.38;;;2.28;;
8532;SDS011;4304;53.876;10.662;2024-02-21T02:05:19;6.53;;;2.10;;
8532;SDS011;4304;53.876;10.662;2024-02-21T02:07:46;11.77;;;1.98;;
8532;SDS011;4304;53.876;10.662;2024-02-21T02:12:36;3.73;;;1.87;;
8532;SDS011;4304;53.876;10.662;2024-02-21T02:17:31;11.93;;;4.63;;
8532;SDS011;4304;53.876;10.662;2024-02-21T02:19:56;3.67;;;1.67;;
8532;SDS011;4304;53.876;10.662;2024-02-21T02:24:50;9.68;;;3.53;;
8532;SDS011;4304;53.876;10.662;2024-02-21T02:27:16;7.78;;;3.33;;
8532;SDS011;4304;53.876;10.662;2024-02-21T02:29:41;6.90;;;3.33;;
8532;SDS011;4304;53.876;10.662;2024-02-21T02:32:06;7.47;;;4.25;;
8532;SDS011;4304;53.876;10.662;2024-02-21T02:34:32;6.33;;;3.67;;
8532;SDS011;4304;53.876;10.662;2024-02-21T02:39:22;3.90;;;2.57;;
8532;SDS011;4304;53.876;10.662;2024-02-21T02:41:48;3.40;;;2.15;;
8532;SDS011;4304;53.876;10.662;2024-02-21T02:44:13;5.67;;;2.33;;
8532;SDS011;4304;53.876;10.662;2024-02-21T02:46:41;4.68;;;2.00;;
8532;SDS011;4304;53.876;10.662;2024-02-21T02:49:07;1.30;;;0.70;;
8532;SDS011;4304;53.876;10.662;2024-02-21T02:51:32;5.13;;;2.50;;
8532;SDS011;4304;53.876;10.662;2024-02-21T02:53:58;5.28;;;2.08;;
8532;SDS011;4304;53.876;10.662;2024-02-21T02:56:23;7.30;;;2.42;;
8532;SDS011;4304;53.876;10.662;2024-02-21T02:58:48;3.92;;;1.85;;
8532;SDS011;4304;53.876;10.662;2024-02-21T03:01:13;3.75;;;2.03;;
8532;SDS011;4304;53.876;10.662;2024-02-21T03:03:39;4.07;;;1.38;;
8532;SDS011;4304;53.876;10.662;2024-02-21T03:06:05;7.38;;;3.80;;
8532;SDS011;4304;53.876;10.662;2024-02-21T03:10:56;3.25;;;2.05;;
8532;SDS011;4304;53.876;10.662;2024-02-21T03:13:21;4.23;;;2.27;;
8532;SDS011;4304;53.876;10.662;2024-02-21T03:18:11;4.37;;;2.90;;
8532;SDS011;4304;53.876;10.662;2024-02-21T03:20:37;4.13;;;1.90;;
8532;SDS011;4304;53.876;10.662;2024-02-21T03:23:02;2.75;;;1.23;;
8532;SDS011;4304;53.876;10.662;2024-02-21T03:27:53;3.63;;;2.47;;
8532;SDS011;4304;53.876;10.662;2024-02-21T03:30:18;3.97;;;2.45;;
8532;SDS011;4304;53.876;10.662;2024-02-21T03:32:43;6.53;;;2.43;;
8532;SDS011;4304;53.876;10.662;2024-02-21T03:35:09;3.28;;;1.83;;
8532;SDS011;4304;53.876;10.662;2024-02-21T03:40:00;4.90;;;3.30;;
8532;SDS011;4304;53.876;10.662;2024-02-21T03:42:25;5.07;;;2.00;;
8532;SDS011;4304;53.876;10.662;2024-02-21T03:44:50;4.25;;;1.75;;
8532;SDS011;4304;53.876;10.662;2024-02-21T03:47:15;7.93;;;3.60;;
8532;SDS011;4304;53.876;10.662;2024-02-21T03:52:06;4.80;;;1.93;;
8532;SDS011;4304;53.876;10.662;2024-02-21T03:54:33;3.35;;;1.88;;
8532;SDS011;4304;53.876;10.662;2024-02-21T03:56:58;6.53;;;2.55;;
8532;SDS011;4304;53.876;10.662;2024-02-21T03:59:23;8.98;;;3.65;;
8532;SDS011;4304;53.876;10.662;2024-02-21T04:01:52;4.35;;;2.05;;
8532;SDS011;4304;53.876;10.662;2024-02-21T04:04:18;4.22;;;1.75;;
8532;SDS011;4304;53.876;10.662;2024-02-21T04:06:47;3.13;;;1.75;;
8532;SDS011;4304;53.876;10.662;2024-02-21T04:09:13;3.80;;;1.48;;
8532;SDS011;4304;53.876;10.662;2024-02-21T04:14:03;3.13;;;1.57;;
8532;SDS011;4304;53.876;10.662;2024-02-21T04:16:28;3.13;;;1.63;;
8532;SDS011;4304;53.876;10.662;2024-02-21T04:21:19;3.20;;;1.47;;
8532;SDS011;4304;53.876;10.662;2024-02-21T04:23:44;7.73;;;3.93;;
8532;SDS011;4304;53.876;10.662;2024-02-21T04:28:35;5.23;;;3.40;;
8532;SDS011;4304;53.876;10.662;2024-02-21T04:31:00;5.15;;;3.05;;
8532;SDS011;4304;53.876;10.662;2024-02-21T04:33:25;12.00;;;4.35;;
8532;SDS011;4304;53.876;10.662;2024-02-21T04:38:19;3.50;;;1.45;;
8532;SDS011;4304;53.876;10.662;2024-02-21T04:43:10;4.83;;;2.23;;
8532;SDS011;4304;53.876;10.662;2024-02-21T04:45:35;5.90;;;3.90;;
8532;SDS011;4304;53.876;10.662;2024-02-21T04:50:26;2.63;;;0.67;;
8532;SDS011;4304;53.876;10.662;2024-02-21T04:52:52;3.22;;;1.70;;
8532;SDS011;4304;53.876;10.662;2024-02-21T04:55:17;8.30;;;4.35;;
8532;SDS011;4304;53.876;10.662;2024-02-21T04:57:43;4.13;;;2.90;;
8532;SDS011;4304;53.876;10.662;2024-02-21T05:00:08;3.28;;;2.17;;
8532;SDS011;4304;53.876;10.662;2024-02-21T05:02:34;1.75;;;0.85;;
8532;SDS011;4304;53.876;10.662;2024-02-21T05:04:59;6.55;;;2.63;;
8532;SDS011;4304;53.876;10.662;2024-02-21T05:09:50;4.00;;;2.83;;
8532;SDS011;4304;53.876;10.662;2024-02-21T05:12:16;3.72;;;1.85;;
8532;SDS011;4304;53.876;10.662;2024-02-21T05:17:06;1.40;;;0.30;;
8532;SDS011;4304;53.876;10.662;2024-02-21T05:19:32;2.78;;;1.60;;
8532;SDS011;4304;53.876;10.662;2024-02-21T05:24:23;3.20;;;1.10;;
8532;SDS011;4304;53.876;10.662;2024-02-21T05:26:49;3.95;;;2.67;;
8532;SDS011;4304;53.876;10.662;2024-02-21T05:31:54;3.53;;;1.48;;
8532;SDS011;4304;53.876;10.662;2024-02-21T05:34:22;5.13;;;2.17;;
8532;SDS011;4304;53.876;10.662;2024-02-21T05:36:48;5.65;;;1.70;;
8532;SDS011;4304;53.876;10.662;2024-02-21T05:39:16;6.07;;;2.92;;
8532;SDS011;4304;53.876;10.662;2024-02-21T05:41:42;3.95;;;1.48;;
8532;SDS011;4304;53.876;10.662;2024-02-21T05:44:07;3.15;;;1.63;;
8532;SDS011;4304;53.876;10.662;2024-02-21T05:46:33;3.78;;;2.53;;
8532;SDS011;4304;53.876;10.662;2024-02-21T05:48:58;3.78;;;1.05;;
8532;SDS011;4304;53.876;10.662;2024-02-21T05:53:49;3.30;;;1.63;;
8532;SDS011;4304;53.876;10.662;2024-02-21T05:56:14;4.43;;;1.23;;
8532;SDS011;4304;53.876;10.662;2024-02-21T05:58:40;2.13;;;1.20;;
8532;SDS011;4304;53.876;10.662;2024-02-21T06:01:05;1.95;;;0.38;;
8532;SDS011;4304;53.876;10.662;2024-02-21T06:03:32;1.80;;;0.60;;
8532;SDS011;4304;53.876;10.662;2024-02-21T06:05:58;1.88;;;0.68;;
8532;SDS011;4304;53.876;10.662;2024-02-21T06:08:24;1.75;;;0.45;;
8532;SDS011;4304;53.876;10.662;2024-02-21T06:10:49;0.50;;;0.08;;
8532;SDS011;4304;53.876;10.662;2024-02-21T06:13:18;2.55;;;0.73;;
8532;SDS011;4304;53.876;10.662;2024-02-21T06:15:46;1.02;;;0.20;;
8532;SDS011;4304;53.876;10.662;2024-02-21T06:18:11;2.05;;;0.38;;
8532;SDS011;4304;53.876;10.662;2024-02-21T06:20:37;1.90;;;0.50;;
8532;SDS011;4304;53.876;10.662;2024-02-21T06:23:05;2.13;;;0.47;;
8532;SDS011;4304;53.876;10.662;2024-02-21T06:27:55;1.60;;;0.70;;
8532;SDS011;4304;53.876;10.662;2024-02-21T06:32:46;1.10;;;0.20;;
8532;SDS011;4304;53.876;10.662;2024-02-21T06:37:36;2.10;;;0.87;;
8532;SDS011;4304;53.876;10.662;2024-02-21T06:40:03;1.10;;;0.25;;
8532;SDS011;4304;53.876;10.662;2024-02-21T06:44:54;1.48;;;0.30;;
8532;SDS011;4304;53.876;10.662;2024-02-21T06:47:21;2.30;;;0.68;;
8532;SDS011;4304;53.876;10.662;2024-02-21T06:52:17;1.20;;;0.20;;
8532;SDS011;4304;53.876;10.662;2024-02-21T06:54:45;0.75;;;0.20;;
8532;SDS011;4304;53.876;10.662;2024-02-21T06:59:36;1.63;;;0.30;;
8532;SDS011;4304;53.876;10.662;2024-02-21T07:04:26;0.55;;;0.10;;
8532;SDS011;4304;53.876;10.662;2024-02-21T07:09:17;0.80;;;0.20;;
8532;SDS011;4304;53.876;10.662;2024-02-21T07:14:08;1.27;;;0.28;;
8532;SDS011;4304;53.876;10.662;2024-02-21T07:18:59;1.38;;;0.65;;
8532;SDS011;4304;53.876;10.662;2024-02-21T07:21:25;1.65;;;0.40;;
8532;SDS011;4304;53.876;10.662;2024-02-21T07:26:15;1.25;;;0.30;;
8532;SDS011;4304;53.876;10.662;2024-02-21T07:31:06;2.70;;;0.63;;
8532;SDS011;4304;53.876;10.662;2024-02-21T07:35:57;1.27;;;0.30;;
8532;SDS011;4304;53.876;10.662;2024-02-21T07:40:48;0.93;;;0.13;;
8532;SDS011;4304;53.876;10.662;2024-02-21T07:45:38;2.30;;;0.57;;
8532;SDS011;4304;53.876;10.662;2024-02-21T07:50:30;2.55;;;0.55;;
8532;SDS011;4304;53.876;10.662;2024-02-21T07:52:55;2.25;;;0.45;;
8532;SDS011;4304;53.876;10.662;2024-02-21T07:57:46;1.10;;;0.27;;
8532;SDS011;4304;53.876;10.662;2024-02-21T08:00:11;2.20;;;0.40;;
8532;SDS011;4304;53.876;10.662;2024-02-21T08:02:44;1.67;;;0.40;;
8532;SDS011;4304;53.876;10.662;2024-02-21T08:05:09;1.98;;;0.60;;
8532;SDS011;4304;53.876;10.662;2024-02-21T08:07:37;0.98;;;0.38;;
8532;SDS011;4304;53.876;10.662;2024-02-21T08:10:02;1.63;;;0.30;;
8532;SDS011;4304;53.876;10.662;2024-02-21T08:14:53;2.00;;;0.40;;
8532;SDS011;4304;53.876;10.662;2024-02-21T08:19:43;2.00;;;0.40;;
8532;SDS011;4304;53.876;10.662;2024-02-21T08:24:34;1.67;;;0.40;;
8532;SDS011;4304;53.876;10.662;2024-02-21T08:29:25;1.73;;;0.50;;
8532;SDS011;4304;53.876;10.662;2024-02-21T08:34:15;2.03;;;0.43;;
8532;SDS011;4304;53.876;10.662;2024-02-21T08:36:40;2.00;;;0.77;;
8532;SDS011;4304;53.876;10.662;2024-02-21T08:39:06;1.17;;;0.38;;
8532;SDS011;4304;53.876;10.662;2024-02-21T08:41:32;2.47;;;1.58;;
8532;SDS011;4304;53.876;10.662;2024-02-21T08:43:57;1.83;;;0.45;;
8532;SDS011;4304;53.876;10.662;2024-02-21T08:46:23;3.00;;;0.83;;
8532;SDS011;4304;53.876;10.662;2024-02-21T08:48:49;4.22;;;1.95;;
8532;SDS011;4304;53.876;10.662;2024-02-21T08:51:16;2.33;;;1.65;;
8532;SDS011;4304;53.876;10.662;2024-02-21T08:53:41;3.25;;;0.63;;
8532;SDS011;4304;53.876;10.662;2024-02-21T08:56:07;0.87;;;0.20;;
8532;SDS011;4304;53.876;10.662;2024-02-21T08:58:35;1.63;;;0.52;;
8532;SDS011;4304;53.876;10.662;2024-02-21T09:01:04;1.42;;;0.80;;
8532;SDS011;4304;53.876;10.662;2024-02-21T09:03:33;1.80;;;0.88;;
8532;SDS011;4304;53.876;10.662;2024-02-21T09:05:59;1.63;;;0.73;;
8532;SDS011;4304;53.876;10.662;2024-02-21T09:08:25;4.13;;;1.50;;
8532;SDS011;4304;53.876;10.662;2024-02-21T09:10:50;1.38;;;0.65;;
8532;SDS011;4304;53.876;10.662;2024-02-21T09:13:16;2.20;;;0.73;;
8532;SDS011;4304;53.876;10.662;2024-02-21T09:15:42;1.27;;;0.32;;
8532;SDS011;4304;53.876;10.662;2024-02-21T09:18:07;2.15;;;0.73;;
8532;SDS011;4304;53.876;10.662;2024-02-21T09:20:33;1.58;;;0.38;;
8532;SDS011;4304;53.876;10.662;2024-02-21T09:22:58;4.32;;;1.30;;
8532;SDS011;4304;53.876;10.662;2024-02-21T09:25:23;1.77;;;1.02;;
8532;SDS011;4304;53.876;10.662;2024-02-21T09:27:49;4.27;;;0.60;;
8532;SDS011;4304;53.876;10.662;2024-02-21T09:30:14;2.00;;;1.10;;
8532;SDS011;4304;53.876;10.662;2024-02-21T09:32:39;3.72;;;1.27;;
8532;SDS011;4304;53.876;10.662;2024-02-21T09:35:05;1.35;;;0.35;;
8532;SDS011;4304;53.876;10.662;2024-02-21T09:37:30;1.92;;;0.70;;
8532;SDS011;4304;53.876;10.662;2024-02-21T09:39:56;1.88;;;1.10;;
8532;SDS011;4304;53.876;10.662;2024-02-21T09:42:21;1.48;;;0.63;;
8532;SDS011;4304;53.876;10.662;2024-02-21T09:45:03;1.92;;;0.77;;
8532;SDS011;4304;53.876;10.662;2024-02-21T09:47:34;2.63;;;0.65;;
8532;SDS011;4304;53.876;10.662;2024-02-21T09:50:22;1.35;;;0.60;;
8532;SDS011;4304;53.876;10.662;2024-02-21T09:52:49;0.35;;;0.20;;
8532;SDS011;4304;53.876;10.662;2024-02-21T09:55:17;2.35;;;1.05;;
8532;SDS011;4304;53.876;10.662;2024-02-21T09:57:44;1.58;;;0.50;;
8532;SDS011;4304;53.876;10.662;2024-02-21T10:00:09;1.17;;;0.20;;
8532;SDS011;4304;53.876;10.662;2024-02-21T10:02:35;0.88;;;0.30;;
8532;SDS011;4304;53.876;10.662;2024-02-21T10:05:01;3.25;;;0.43;;
8532;SDS011;4304;53.876;10.662;2024-02-21T10:07:28;5.32;;;1.05;;
8532;SDS011;4304;53.876;10.662;2024-02-21T10:10:03;1.60;;;0.65;;
8532;SDS011;4304;53.876;10.662;2024-02-21T10:12:29;1.45;;;0.55;;
8532;SDS011;4304;53.876;10.662;2024-02-21T10:15:01;1.90;;;0.15;;
8532;SDS011;4304;53.876;10.662;2024-02-21T10:17:30;3.17;;;0.95;;
8532;SDS011;4304;53.876;10.662;2024-02-21T10:19:55;1.40;;;0.45;;
8532;SDS011;4304;53.876;10.662;2024-02-21T10:22:20;0.93;;;0.30;;
8532;SDS011;4304;53.876;10.662;2024-02-21T10:24:46;2.30;;;0.75;;
8532;SDS011;4304;53.876;10.662;2024-02-21T10:27:11;1.55;;;0.70;;
8532;SDS011;4304;53.876;10.662;2024-02-21T10:29:37;0.45;;;0.20;;
8532;SDS011;4304;53.876;10.662;2024-02-21T10:32:06;1.63;;;0.60;;
8532;SDS011;4304;53.876;10.662;2024-02-21T10:34:36;1.67;;;0.50;;
8532;SDS011;4304;53.876;10.662;2024-02-21T10:37:03;0.98;;;0.22;;
8532;SDS011;4304;53.876;10.662;2024-02-21T10:39:33;0.50;;;0.13;;
8532;SDS011;4304;53.876;10.662;2024-02-21T10:42:00;1.73;;;0.40;;
8532;SDS011;4304;53.876;10.662;2024-02-21T10:44:29;3.25;;;0.82;;
8532;SDS011;4304;53.876;10.662;2024-02-21T10:46:56;2.00;;;0.80;;
8532;SDS011;4304;53.876;10.662;2024-02-21T10:49:23;4.22;;;0.82;;
8532;SDS011;4304;53.876;10.662;2024-02-21T10:52:17;0.75;;;0.32;;
8532;SDS011;4304;53.876;10.662;2024-02-21T10:57:12;0.93;;;0.30;;
8532;SDS011;4304;53.876;10.662;2024-02-21T10:59:39;6.72;;;1.67;;
8532;SDS011;4304;53.876;10.662;2024-02-21T11:02:05;2.75;;;1.10;;
8532;SDS011;4304;53.876;10.662;2024-02-21T11:04:31;1.70;;;0.63;;
8532;SDS011;4304;53.876;10.662;2024-02-21T11:07:01;1.35;;;0.35;;
8532;SDS011;4304;53.876;10.662;2024-02-21T11:09:32;1.60;;;0.57;;
8532;SDS011;4304;53.876;10.662;2024-02-21T11:11:58;1.77;;;0.40;;
8532;SDS011;4304;53.876;10.662;2024-02-21T11:14:29;1.23;;;0.30;;
8532;SDS011;4304;53.876;10.662;2024-02-21T11:16:57;1.65;;;0.40;;
8532;SDS011;4304;53.876;10.662;2024-02-21T11:19:26;1.83;;;0.43;;
8532;SDS011;4304;53.876;10.662;2024-02-21T11:21:54;1.98;;;1.23;;
8532;SDS011;4304;53.876;10.662;2024-02-21T11:24:30;2.28;;;0.80;;
8532;SDS011;4304;53.876;10.662;2024-02-21T11:26:56;2.33;;;1.17;;
8532;SDS011;4304;53.876;10.662;2024-02-21T11:29:32;1.55;;;0.73;;
8532;SDS011;4304;53.876;10.662;2024-02-21T11:31:57;1.23;;;0.70;;
8532;SDS011;4304;53.876;10.662;2024-02-21T11:34:23;0.80;;;0.20;;
8532;SDS011;4304;53.876;10.662;2024-02-21T11:36:49;1.10;;;0.30;;
8532;SDS011;4304;53.876;10.662;2024-02-21T11:39:18;2.63;;;0.77;;
8532;SDS011;4304;53.876;10.662;2024-02-21T11:41:46;4.13;;;0.80;;
8532;SDS011;4304;53.876;10.662;2024-02-21T11:44:12;2.05;;;0.85;;
8532;SDS011;4304;53.876;10.662;2024-02-21T11:46:37;1.95;;;0.60;;
8532;SDS011;4304;53.876;10.662;2024-02-21T11:49:03;0.82;;;0.20;;
8532;SDS011;4304;53.876;10.662;2024-02-21T11:51:28;1.35;;;0.35;;
8532;SDS011;4304;53.876;10.662;2024-02-21T11:53:53;2.50;;;0.83;;
8532;SDS011;4304;53.876;10.662;2024-02-21T11:56:19;1.88;;;0.90;;
8532;SDS011;4304;53.876;10.662;2024-02-21T11:58:48;2.25;;;0.55;;
8532;SDS011;4304;53.876;10.662;2024-02-21T12:01:14;2.33;;;0.70;;
8532;SDS011;4304;53.876;10.662;2024-02-21T12:03:39;12.63;;;1.02;;
8532;SDS011;4304;53.876;10.662;2024-02-21T12:06:06;1.10;;;0.55;;
8532;SDS011;4304;53.876;10.662;2024-02-21T12:08:44;2.10;;;0.77;;
8532;SDS011;4304;53.876;10.662;2024-02-21T12:13:45;1.88;;;1.13;;
8532;SDS011;4304;53.876;10.662;2024-02-21T12:16:12;1.15;;;0.30;;
8532;SDS011;4304;53.876;10.662;2024-02-21T12:18:41;1.63;;;0.68;;
8532;SDS011;4304;53.876;10.662;2024-02-21T12:21:06;1.98;;;0.80;;
8532;SDS011;4304;53.876;10.662;2024-02-21T12:23:32;2.88;;;1.15;;
8532;SDS011;4304;53.876;10.662;2024-02-21T12:25:58;2.67;;;1.13;;
8532;SDS011;4304;53.876;10.662;2024-02-21T12:28:24;3.10;;;1.15;;
8532;SDS011;4304;53.876;10.662;2024-02-21T12:30:51;4.13;;;1.55;;
8532;SDS011;4304;53.876;10.662;2024-02-21T12:33:17;4.05;;;1.33;;
8532;SDS011;4304;53.876;10.662;2024-02-21T12:35:43;2.85;;;1.85;;
8532;SDS011;4304;53.876;10.662;2024-02-21T12:38:08;3.28;;;1.33;;
8532;SDS011;4304;53.876;10.662;2024-02-21T12:40:33;4.38;;;2.00;;
8532;SDS011;4304;53.876;10.662;2024-02-21T12:42:59;3.60;;;1.55;;
8532;SDS011;4304;53.876;10.662;2024-02-21T12:45:27;3.28;;;1.13;;
8532;SDS011;4304;53.876;10.662;2024-02-21T12:47:53;2.15;;;0.93;;
8532;SDS011;4304;53.876;10.662;2024-02-21T12:50:18;5.40;;;2.13;;
8532;SDS011;4304;53.876;10.662;2024-02-21T12:52:44;3.60;;;1.08;;
8532;SDS011;4304;53.876;10.662;2024-02-21T12:55:10;3.90;;;1.45;;
8532;SDS011;4304;53.876;10.662;2024-02-21T12:57:37;5.13;;;2.45;;
8532;SDS011;4304;53.876;10.662;2024-02-21T13:00:02;2.93;;;1.80;;
8532;SDS011;4304;53.876;10.662;2024-02-21T13:02:28;1.95;;;1.27;;
8532;SDS011;4304;53.876;10.662;2024-02-21T13:04:54;1.88;;;0.95;;
8532;SDS011;4304;53.876;10.662;2024-02-21T13:07:19;3.67;;;1.90;;
8532;SDS011;4304;53.876;10.662;2024-02-21T13:09:44;1.10;;;0.70;;
8532;SDS011;4304;53.876;10.662;2024-02-21T13:12:10;3.33;;;2.37;;
8532;SDS011;4304;53.876;10.662;2024-02-21T13:14:35;7.10;;;2.17;;
8532;SDS011;4304;53.876;10.662;2024-02-21T13:17:03;4.95;;;1.88;;
8532;SDS011;4304;53.876;10.662;2024-02-21T13:19:29;3.13;;;1.10;;
8532;SDS011;4304;53.876;10.662;2024-02-21T13:21:54;3.25;;;1.45;;
8532;SDS011;4304;53.876;10.662;2024-02-21T13:24:19;3.97;;;1.83;;
8532;SDS011;4304;53.876;10.662;2024-02-21T13:26:45;6.63;;;1.67;;
8532;SDS011;4304;53.876;10.662;2024-02-21T13:29:10;6.15;;;1.88;;
8532;SDS011;4304;53.876;10.662;2024-02-21T13:31:35;2.00;;;0.93;;
8532;SDS011;4304;53.876;10.662;2024-02-21T13:34:01;6.88;;;2.58;;
8532;SDS011;4304;53.876;10.662;2024-02-21T13:36:26;5.60;;;2.07;;
8532;SDS011;4304;53.876;10.662;2024-02-21T13:38:51;3.75;;;1.48;;
8532;SDS011;4304;53.876;10.662;2024-02-21T13:41:17;2.55;;;1.15;;
8532;SDS011;4304;53.876;10.662;2024-02-21T13:43:43;6.60;;;2.80;;
8532;SDS011;4304;53.876;10.662;2024-02-21T13:46:08;3.20;;;1.75;;
8532;SDS011;4304;53.876;10.662;2024-02-21T13:48:36;3.17;;;0.98;;
8532;SDS011;4304;53.876;10.662;2024-02-21T13:51:01;2.65;;;0.93;;
8532;SDS011;4304;53.876;10.662;2024-02-21T13:53:27;6.50;;;2.55;;
8532;SDS011;4304;53.876;10.662;2024-02-21T13:55:53;2.75;;;1.15;;
8532;SDS011;4304;53.876;10.662;2024-02-21T13:58:18;3.45;;;1.60;;
8532;SDS011;4304;53.876;10.662;2024-02-21T14:00:44;1.33;;;1.08;;
8532;SDS011;4304;53.876;10.662;2024-02-21T14:03:09;3.60;;;1.88;;
8532;SDS011;4304;53.876;10.662;2024-02-21T14:05:35;5.10;;;2.20;;
8532;SDS011;4304;53.876;10.662;2024-02-21T14:08:00;2.58;;;1.38;;
8532;SDS011;4304;53.876;10.662;2024-02-21T14:10:25;2.60;;;1.23;;
8532;SDS011;4304;53.876;10.662;2024-02-21T14:12:51;4.35;;;1.92;;
8532;SDS011;4304;53.876;10.662;2024-02-21T14:15:16;4.95;;;1.80;;
8532;SDS011;4304;53.876;10.662;2024-02-21T14:17:42;3.55;;;2.03;;
8532;SDS011;4304;53.876;10.662;2024-02-21T14:22:33;4.43;;;1.33;;
8532;SDS011;4304;53.876;10.662;2024-02-21T14:24:59;3.88;;;1.02;;
8532;SDS011;4304;53.876;10.662;2024-02-21T14:27:25;4.95;;;2.85;;
8532;SDS011;4304;53.876;10.662;2024-02-21T14:29:51;3.88;;;2.05;;
8532;SDS011;4304;53.876;10.662;2024-02-21T14:32:16;8.05;;;1.50;;
8532;SDS011;4304;53.876;10.662;2024-02-21T14:34:41;2.92;;;1.25;;
8532;SDS011;4304;53.876;10.662;2024-02-21T14:37:07;8.13;;;3.30;;
8532;SDS011;4304;53.876;10.662;2024-02-21T14:39:32;7.10;;;2.67;;
8532;SDS011;4304;53.876;10.662;2024-02-21T14:41:59;5.03;;;2.17;;
8532;SDS011;4304;53.876;10.662;2024-02-21T14:44:25;5.70;;;2.70;;
8532;SDS011;4304;53.876;10.662;2024-02-21T14:46:50;2.85;;;1.65;;
8532;SDS011;4304;53.876;10.662;2024-02-21T14:49:16;4.07;;;1.40;;
8532;SDS011;4304;53.876;10.662;2024-02-21T14:51:41;4.82;;;1.55;;
8532;SDS011;4304;53.876;10.662;2024-02-21T14:56:32;3.78;;;1.67;;
8532;SDS011;4304;53.876;10.662;2024-02-21T14:58:57;1.88;;;0.98;;
8532;SDS011;4304;53.876;10.662;2024-02-21T15:01:23;2.17;;;1.25;;
8532;SDS011;4304;53.876;10.662;2024-02-21T15:03:48;5.25;;;1.75;;
8532;SDS011;4304;53.876;10.662;2024-02-21T15:06:14;3.88;;;1.45;;
8532;SDS011;4304;53.876;10.662;2024-02-21T15:08:39;5.85;;;1.70;;
8532;SDS011;4304;53.876;10.662;2024-02-21T15:11:04;2.13;;;1.15;;
8532;SDS011;4304;53.876;10.662;2024-02-21T15:13:30;11.27;;;3.05;;
8532;SDS011;4304;53.876;10.662;2024-02-21T15:15:57;5.00;;;2.45;;
8532;SDS011;4304;53.876;10.662;2024-02-21T15:18:23;3.60;;;1.88;;
8532;SDS011;4304;53.876;10.662;2024-02-21T15:20:49;2.30;;;1.40;;
8532;SDS011;4304;53.876;10.662;2024-02-21T15:23:14;1.83;;;1.30;;
8532;SDS011;4304;53.876;10.662;2024-02-21T15:25:40;5.30;;;1.50;;
8532;SDS011;4304;53.876;10.662;2024-02-21T15:30:31;4.82;;;1.92;;
8532;SDS011;4304;53.876;10.662;2024-02-21T15:32:57;3.05;;;1.20;;
8532;SDS011;4304;53.876;10.662;2024-02-21T15:35:29;2.85;;;1.40;;
8532;SDS011;4304;53.876;10.662;2024-02-21T15:37:54;4.35;;;1.40;;
8532;SDS011;4304;53.876;10.662;2024-02-21T15:40:23;3.53;;;1.45;;
8532;SDS011;4304;53.876;10.662;2024-02-21T15:42:49;8.18;;;2.63;;
8532;SDS011;4304;53.876;10.662;2024-02-21T15:47:40;2.75;;;2.15;;
8532;SDS011;4304;53.876;10.662;2024-02-21T15:50:06;2.03;;;0.75;;
8532;SDS011;4304;53.876;10.662;2024-02-21T15:52:32;4.85;;;2.35;;
8532;SDS011;4304;53.876;10.662;2024-02-21T15:57:22;2.22;;;0.88;;
8532;SDS011;4304;53.876;10.662;2024-02-21T15:59:48;4.05;;;1.67;;
8532;SDS011;4304;53.876;10.662;2024-02-21T16:02:15;2.88;;;1.98;;
8532;SDS011;4304;53.876;10.662;2024-02-21T16:04:41;3.50;;;1.40;;
8532;SDS011;4304;53.876;10.662;2024-02-21T16:09:31;9.57;;;1.40;;
8532;SDS011;4304;53.876;10.662;2024-02-21T16:11:57;2.47;;;1.00;;
8532;SDS011;4304;53.876;10.662;2024-02-21T16:14:23;3.55;;;1.98;;
8532;SDS011;4304;53.876;10.662;2024-02-21T16:16:51;4.60;;;1.52;;
8532;SDS011;4304;53.876;10.662;2024-02-21T16:21:41;4.37;;;1.67;;
8532;SDS011;4304;53.876;10.662;2024-02-21T16:24:10;2.30;;;1.48;;
8532;SDS011;4304;53.876;10.662;2024-02-21T16:26:35;3.95;;;1.73;;
8532;SDS011;4304;53.876;10.662;2024-02-21T16:29:04;6.75;;;2.55;;
8532;SDS011;4304;53.876;10.662;2024-02-21T16:31:30;5.28;;;2.15;;
8532;SDS011;4304;53.876;10.662;2024-02-21T16:33:55;2.17;;;1.37;;
8532;SDS011;4304;53.876;10.662;2024-02-21T16:36:24;4.05;;;2.22;;
8532;SDS011;4304;53.876;10.662;2024-02-21T16:38:50;7.45;;;2.22;;
8532;SDS011;4304;53.876;10.662;2024-02-21T16:41:16;4.43;;;2.08;;
8532;SDS011;4304;53.876;10.662;2024-02-21T16:43:43;3.90;;;2.08;;
8532;SDS011;4304;53.876;10.662;2024-02-21T16:48:34;4.50;;;2.03;;
8532;SDS011;4304;53.876;10.662;2024-02-21T16:53:25;5.78;;;2.35;;
8532;SDS011;4304;53.876;10.662;2024-02-21T16:58:15;3.50;;;1.30;;
8532;SDS011;4304;53.876;10.662;2024-02-21T17:03:06;12.57;;;1.08;;
8532;SDS011;4304;53.876;10.662;2024-02-21T17:05:32;3.25;;;1.10;;
8532;SDS011;4304;53.876;10.662;2024-02-21T17:10:22;6.63;;;1.40;;
8532;SDS011;4304;53.876;10.662;2024-02-21T17:12:48;4.88;;;1.33;;
8532;SDS011;4304;53.876;10.662;2024-02-21T17:17:40;2.22;;;0.93;;
8532;SDS011;4304;53.876;10.662;2024-02-21T17:22:33;3.28;;;1.55;;
8532;SDS011;4304;53.876;10.662;2024-02-21T17:27:23;4.47;;;1.47;;
8532;SDS011;4304;53.876;10.662;2024-02-21T17:32:14;2.83;;;1.57;;
8532;SDS011;4304;53.876;10.662;2024-02-21T17:34:39;4.73;;;1.70;;
8532;SDS011;4304;53.876;10.662;2024-02-21T17:39:30;3.15;;;1.40;;
8532;SDS011;4304;53.876;10.662;2024-02-21T17:44:22;2.53;;;0.60;;
8532;SDS011;4304;53.876;10.662;2024-02-21T17:49:12;3.22;;;1.77;;
8532;SDS011;4304;53.876;10.662;2024-02-21T17:51:40;3.83;;;1.10;;
8532;SDS011;4304;53.876;10.662;2024-02-21T17:56:31;3.43;;;1.20;;
8532;SDS011;4304;53.876;10.662;2024-02-21T18:01:22;4.40;;;0.77;;
8532;SDS011;4304;53.876;10.662;2024-02-21T18:03:48;3.30;;;1.50;;
8532;SDS011;4304;53.876;10.662;2024-02-21T18:08:39;2.73;;;0.50;;
8532;SDS011;4304;53.876;10.662;2024-02-21T18:13:29;3.10;;;1.70;;
8532;SDS011;4304;53.876;10.662;2024-02-21T18:18:23;2.53;;;0.80;;
8532;SDS011;4304;53.876;10.662;2024-02-21T18:23:15;2.88;;;1.55;;